createdAt,value
2023-02-06T00:00:48.726Z,5.43
2023-02-06T00:03:15.598Z,4.87
2023-02-06T00:05:42.285Z,4.73
2023-02-06T00:08:09.360Z,5.47
2023-02-06T00:10:36.100Z,6.13
2023-02-06T00:13:02.903Z,5.80
2023-02-06T00:15:29.635Z,5.80
2023-02-06T00:17:56.305Z,5.70
2023-02-06T00:20:22.947Z,5.47
2023-02-06T00:22:49.590Z,4.87
2023-02-06T00:25:16.239Z,4.67
2023-02-06T00:27:42.964Z,5.07
2023-02-06T00:30:10.057Z,4.83
2023-02-06T00:32:36.989Z,4.67
2023-02-06T00:35:03.845Z,4.70
2023-02-06T00:37:30.468Z,4.07
2023-02-06T00:39:57.191Z,4.37
2023-02-06T00:42:23.802Z,4.37
2023-02-06T00:44:50.498Z,4.87
2023-02-06T00:47:17.161Z,4.43
2023-02-06T00:49:43.862Z,4.17
2023-02-06T00:52:10.702Z,4.33
2023-02-06T00:54:37.385Z,4.50
2023-02-06T00:57:04.082Z,4.20
2023-02-06T00:59:30.808Z,4.13
2023-02-06T01:01:57.753Z,4.80
2023-02-06T01:04:24.559Z,5.10
2023-02-06T01:06:51.510Z,5.07
2023-02-06T01:09:18.352Z,5.20
2023-02-06T01:11:45.822Z,5.10
2023-02-06T01:14:12.574Z,5.40
2023-02-06T01:16:39.179Z,5.20
2023-02-06T01:19:05.854Z,4.90
2023-02-06T01:21:32.568Z,4.97
2023-02-06T01:23:59.452Z,4.13
2023-02-06T01:26:27.288Z,4.37
2023-02-06T01:28:54.695Z,3.77
2023-02-06T01:31:21.341Z,4.87
2023-02-06T01:33:49.297Z,4.33
2023-02-06T01:36:17.765Z,4.60
2023-02-06T01:38:45.063Z,3.87
2023-02-06T01:41:13.312Z,4.93
2023-02-06T01:43:43.395Z,4.87
2023-02-06T01:46:10.212Z,4.37
2023-02-06T01:48:42.798Z,4.03
2023-02-06T01:51:15.446Z,5.13
2023-02-06T01:53:46.489Z,4.07
2023-02-06T01:56:19.327Z,4.60
2023-02-06T01:58:51.721Z,3.53
2023-02-06T02:01:20.170Z,3.87
2023-02-06T02:03:50.305Z,3.43
2023-02-06T02:06:21.013Z,3.90
2023-02-06T02:08:51.830Z,4.00
2023-02-06T02:11:21.852Z,4.40
2023-02-06T02:13:51.094Z,3.80
2023-02-06T02:17:05.452Z,3.50
2023-02-06T02:20:00.137Z,3.83
2023-02-06T02:22:40.029Z,4.10
2023-02-06T02:25:34.178Z,4.07
2023-02-06T02:28:37.510Z,4.27
2023-02-06T02:31:13.144Z,4.53
2023-02-06T02:33:57.966Z,4.53
2023-02-06T02:36:57.027Z,4.30
2023-02-06T02:39:44.995Z,5.27
2023-02-06T02:42:13.763Z,4.70
2023-02-06T02:45:03.606Z,4.67
2023-02-06T02:47:33.782Z,4.27
2023-02-06T02:50:03.149Z,3.53
2023-02-06T02:52:29.836Z,3.83
2023-02-06T02:54:56.672Z,4.43
2023-02-06T02:57:30.144Z,4.50
2023-02-06T02:59:59.775Z,3.73
2023-02-06T03:02:31.843Z,3.50
2023-02-06T03:05:20.675Z,3.73
2023-02-06T03:07:56.233Z,3.93
2023-02-06T03:10:34.836Z,3.23
2023-02-06T03:13:19.645Z,3.40
2023-02-06T03:16:01.014Z,4.10
2023-02-06T03:18:50.735Z,3.57
2023-02-06T03:21:20.926Z,4.47
2023-02-06T03:23:52.721Z,3.97
2023-02-06T03:26:23.785Z,3.43
2023-02-06T03:28:54.082Z,4.87
2023-02-06T03:31:54.071Z,4.50
2023-02-06T03:34:29.233Z,4.07
2023-02-06T03:36:56.178Z,3.63
2023-02-06T03:39:23.136Z,3.70
2023-02-06T03:41:51.698Z,3.87
2023-02-06T03:44:24.729Z,4.10
2023-02-06T03:46:54.488Z,3.77
2023-02-06T03:49:25.354Z,3.80
2023-02-06T03:51:59.624Z,4.70
2023-02-06T03:54:27.757Z,4.17
2023-02-06T03:57:01.020Z,3.63
2023-02-06T03:59:27.886Z,3.90
2023-02-06T04:02:00.010Z,3.73
2023-02-06T04:04:34.267Z,3.80
2023-02-06T04:07:08.751Z,3.87
2023-02-06T04:09:35.415Z,3.87
2023-02-06T04:12:02.067Z,3.70
2023-02-06T04:14:28.743Z,3.90
2023-02-06T04:16:55.630Z,3.83
2023-02-06T04:19:22.279Z,3.70
2023-02-06T04:21:49.119Z,4.40
2023-02-06T04:24:15.813Z,4.17
2023-02-06T04:26:42.481Z,5.00
2023-02-06T04:29:09.133Z,4.73
2023-02-06T04:31:35.862Z,5.17
2023-02-06T04:34:02.577Z,4.67
2023-02-06T04:36:29.286Z,4.70
2023-02-06T04:38:55.965Z,4.07
2023-02-06T04:41:22.614Z,3.97
2023-02-06T04:43:49.314Z,3.80
2023-02-06T04:46:16.016Z,3.77
2023-02-06T04:48:42.669Z,3.90
2023-02-06T04:51:09.488Z,3.73
2023-02-06T04:53:36.212Z,3.70
2023-02-06T04:56:08.053Z,4.00
2023-02-06T04:58:34.939Z,3.50
2023-02-06T05:01:02.269Z,3.30
2023-02-06T05:03:29.682Z,3.53
2023-02-06T05:06:00.106Z,3.30
2023-02-06T05:08:27.092Z,4.20
2023-02-06T05:10:53.978Z,2.90
2023-02-06T05:13:21.111Z,3.30
2023-02-06T05:15:48.080Z,3.20
2023-02-06T05:18:15.331Z,4.00
2023-02-06T05:20:43.323Z,3.87
2023-02-06T05:23:10.102Z,3.97
2023-02-06T05:25:37.156Z,3.33
2023-02-06T05:28:06.653Z,3.73
2023-02-06T05:30:34.793Z,3.10
2023-02-06T05:33:01.830Z,3.57
2023-02-06T05:35:28.852Z,3.40
2023-02-06T05:37:55.533Z,3.70
2023-02-06T05:40:22.333Z,3.70
2023-02-06T05:42:49.127Z,3.57
2023-02-06T05:45:15.801Z,4.07
2023-02-06T05:47:42.567Z,3.67
2023-02-06T05:50:09.561Z,4.27
2023-02-06T05:52:37.231Z,4.23
2023-02-06T05:55:04.238Z,4.20
2023-02-06T05:57:31.036Z,3.87
2023-02-06T05:59:57.672Z,4.20
2023-02-06T06:02:24.498Z,3.87
2023-02-06T06:04:51.307Z,4.93
2023-02-06T06:07:18.112Z,4.13
2023-02-06T06:09:44.800Z,4.27
2023-02-06T06:12:11.522Z,5.27
2023-02-06T06:14:38.212Z,5.43
2023-02-06T06:17:04.939Z,5.70
2023-02-06T06:19:31.687Z,5.47
2023-02-06T06:21:58.650Z,4.77
2023-02-06T06:24:26.087Z,5.07
2023-02-06T06:26:52.819Z,5.63
2023-02-06T06:29:19.543Z,5.57
2023-02-06T06:31:46.386Z,5.83
2023-02-06T06:34:13.142Z,6.90
2023-02-06T06:36:39.807Z,8.03
2023-02-06T06:39:06.490Z,6.83
2023-02-06T06:41:33.270Z,7.20
2023-02-06T06:44:00.112Z,6.57
2023-02-06T06:46:26.800Z,7.50
2023-02-06T06:48:53.760Z,6.63
2023-02-06T06:51:20.776Z,7.17
2023-02-06T06:53:47.519Z,8.17
2023-02-06T06:56:15.076Z,9.30
2023-02-06T06:58:42.597Z,9.97
2023-02-06T07:01:09.519Z,9.63
2023-02-06T07:03:36.852Z,10.93
2023-02-06T07:06:04.891Z,10.77
2023-02-06T07:08:35.999Z,9.67
2023-02-06T07:11:02.661Z,9.53
2023-02-06T07:13:29.643Z,9.60
2023-02-06T07:15:56.311Z,11.43
2023-02-06T07:18:22.924Z,9.77
2023-02-06T07:20:51.485Z,8.47
2023-02-06T07:23:18.185Z,8.57
2023-02-06T07:25:44.813Z,8.80
2023-02-06T07:28:11.648Z,8.93
2023-02-06T07:30:38.446Z,8.37
2023-02-06T07:33:05.996Z,8.90
2023-02-06T07:35:32.775Z,7.73
2023-02-06T07:37:59.589Z,7.80
2023-02-06T07:40:36.445Z,8.47
2023-02-06T07:43:09.892Z,8.20
2023-02-06T07:45:36.879Z,7.73
2023-02-06T07:48:04.729Z,8.43
2023-02-06T07:50:31.966Z,8.57
2023-02-06T07:52:58.927Z,8.17
2023-02-06T07:55:26.600Z,8.33
2023-02-06T07:57:54.992Z,7.43
2023-02-06T08:00:21.950Z,6.77
2023-02-06T08:02:48.657Z,7.67
2023-02-06T08:05:15.339Z,7.17
2023-02-06T08:07:42.034Z,8.83
2023-02-06T08:10:08.926Z,8.13
2023-02-06T08:12:35.569Z,8.03
2023-02-06T08:15:02.278Z,9.33
2023-02-06T08:17:28.943Z,10.27
2023-02-06T08:19:55.623Z,9.83
2023-02-06T08:22:22.305Z,8.43
2023-02-06T08:24:48.983Z,8.07
2023-02-06T08:27:15.683Z,9.20
2023-02-06T08:29:45.626Z,9.27
2023-02-06T08:32:12.878Z,9.47
2023-02-06T08:34:40.094Z,8.67
2023-02-06T08:37:07.041Z,8.67
2023-02-06T08:39:33.772Z,9.27
2023-02-06T08:42:00.447Z,7.93
2023-02-06T08:44:27.677Z,9.27
2023-02-06T08:47:08.747Z,8.80
2023-02-06T08:49:36.287Z,8.00
2023-02-06T08:52:03.007Z,6.67
2023-02-06T08:54:29.853Z,6.00
2023-02-06T08:56:58.439Z,7.73
2023-02-06T08:59:25.195Z,8.77
2023-02-06T09:01:52.271Z,7.97
2023-02-06T09:04:19.613Z,8.27
2023-02-06T09:06:52.407Z,8.30
2023-02-06T09:09:19.279Z,6.90
2023-02-06T09:11:46.015Z,6.57
2023-02-06T09:14:17.378Z,6.70
2023-02-06T09:16:44.331Z,6.27
2023-02-06T09:19:11.443Z,7.50
2023-02-06T09:21:38.404Z,7.47
2023-02-06T09:24:07.669Z,7.50
2023-02-06T09:26:40.614Z,6.60
2023-02-06T09:29:12.633Z,5.80
2023-02-06T09:31:41.211Z,7.17
2023-02-06T09:34:09.308Z,6.17
2023-02-06T09:36:36.892Z,6.70
2023-02-06T09:39:06.149Z,6.90
2023-02-06T09:41:35.376Z,6.73
2023-02-06T09:44:16.280Z,8.30
2023-02-06T09:47:05.006Z,7.40
2023-02-06T09:49:43.655Z,8.13
2023-02-06T09:52:33.577Z,6.87
2023-02-06T09:55:14.236Z,5.90
2023-02-06T09:57:57.384Z,6.87
2023-02-06T10:00:27.028Z,7.10
2023-02-06T10:02:59.673Z,8.07
2023-02-06T10:05:51.195Z,8.47
2023-02-06T10:08:42.004Z,8.10
2023-02-06T10:11:18.311Z,11.80
2023-02-06T10:13:50.585Z,7.40
2023-02-06T10:16:36.286Z,6.27
2023-02-06T10:19:09.560Z,7.27
2023-02-06T10:21:45.368Z,6.67
2023-02-06T10:24:34.484Z,9.60
2023-02-06T10:27:04.664Z,6.67
2023-02-06T10:29:34.158Z,6.00
2023-02-06T10:32:27.927Z,6.10
2023-02-06T10:34:57.608Z,7.60
2023-02-06T10:37:35.731Z,8.67
2023-02-06T10:40:35.488Z,7.67
2023-02-06T10:43:23.021Z,8.73
2023-02-06T10:46:15.449Z,9.07
2023-02-06T10:48:48.278Z,10.93
2023-02-06T10:51:24.998Z,9.50
2023-02-06T10:53:58.673Z,10.47
2023-02-06T10:56:30.078Z,8.00
2023-02-06T10:59:17.007Z,8.03
2023-02-06T11:01:47.319Z,6.77
2023-02-06T11:04:24.013Z,7.70
2023-02-06T11:06:57.688Z,6.30
2023-02-06T11:09:24.666Z,6.60
2023-02-06T11:11:56.148Z,7.13
2023-02-06T11:14:30.460Z,6.83
2023-02-06T11:16:59.604Z,7.83
2023-02-06T11:19:30.287Z,7.40
2023-02-06T11:22:08.929Z,8.13
2023-02-06T11:24:36.995Z,7.17
2023-02-06T11:27:14.575Z,7.57
2023-02-06T11:29:51.942Z,6.27
2023-02-06T11:32:59.024Z,6.57
2023-02-06T11:35:39.116Z,6.27
2023-02-06T11:38:16.831Z,6.90
2023-02-06T11:40:53.318Z,8.03
2023-02-06T11:43:26.705Z,7.43
2023-02-06T11:46:16.824Z,6.60
2023-02-06T11:48:43.522Z,6.03
2023-02-06T11:51:11.771Z,7.03
2023-02-06T11:53:38.765Z,6.33
2023-02-06T11:56:20.729Z,6.47
2023-02-06T11:59:00.745Z,7.20
2023-02-06T12:01:27.452Z,6.50
2023-02-06T12:03:58.855Z,7.77
2023-02-06T12:06:40.228Z,7.53
2023-02-06T12:09:12.628Z,6.63
2023-02-06T12:11:57.520Z,6.70
2023-02-06T12:14:39.738Z,7.40
2023-02-06T12:17:21.155Z,7.67
2023-02-06T12:19:57.051Z,7.40
2023-02-06T12:22:24.704Z,7.20
2023-02-06T12:24:55.502Z,7.23
2023-02-06T12:27:30.665Z,7.83
2023-02-06T12:30:26.688Z,8.20
2023-02-06T12:33:03.361Z,7.90
2023-02-06T12:35:50.364Z,9.13
2023-02-06T12:38:31.120Z,10.53
2023-02-06T12:41:16.451Z,14.87
2023-02-06T12:43:45.445Z,11.27
2023-02-06T12:46:17.539Z,9.83
2023-02-06T12:48:58.824Z,10.07
2023-02-06T12:52:04.781Z,10.17
2023-02-06T12:54:47.921Z,10.37
2023-02-06T12:57:19.877Z,11.83
2023-02-06T12:59:57.863Z,11.83
2023-02-06T13:03:14.781Z,11.50
2023-02-06T13:05:46.952Z,10.30
2023-02-06T13:08:18.378Z,11.53
2023-02-06T13:10:45.453Z,11.90
2023-02-06T13:13:28.347Z,12.17
2023-02-06T13:15:57.526Z,10.77
2023-02-06T13:18:52.431Z,12.27
2023-02-06T13:21:32.451Z,12.43
2023-02-06T13:24:02.052Z,13.10
2023-02-06T13:26:51.654Z,12.13
2023-02-06T13:29:34.922Z,12.77
2023-02-06T13:32:31.524Z,12.07
2023-02-06T13:35:13.280Z,12.40
2023-02-06T13:37:42.987Z,13.40
2023-02-06T13:40:21.289Z,13.20
2023-02-06T13:43:13.801Z,13.20
2023-02-06T13:45:58.535Z,12.20
2023-02-06T13:48:37.374Z,11.80
2023-02-06T13:51:28.962Z,12.27
2023-02-06T13:54:14.325Z,11.60
2023-02-06T13:56:52.082Z,10.77
2023-02-06T13:59:24.542Z,11.53
2023-02-06T14:01:52.077Z,12.50
2023-02-06T14:04:26.456Z,12.40
2023-02-06T14:07:02.038Z,11.93
2023-02-06T14:09:36.057Z,13.43
2023-02-06T14:12:29.294Z,13.47
2023-02-06T14:15:01.972Z,12.37
2023-02-06T14:17:46.469Z,13.40
2023-02-06T14:20:18.768Z,13.30
2023-02-06T14:22:51.492Z,13.53
2023-02-06T14:25:55.719Z,13.40
2023-02-06T14:28:47.129Z,13.60
2023-02-06T14:31:33.287Z,13.60
2023-02-06T14:34:35.250Z,14.90
2023-02-06T14:37:20.592Z,21.27
2023-02-06T14:39:52.136Z,15.13
2023-02-06T14:42:22.345Z,15.37
2023-02-06T14:44:57.104Z,14.77
2023-02-06T14:47:32.455Z,14.07
2023-02-06T14:50:01.416Z,13.60
2023-02-06T14:52:31.275Z,12.37
2023-02-06T14:54:57.939Z,13.80
2023-02-06T14:57:28.450Z,14.10
2023-02-06T14:59:58.112Z,14.83
2023-02-06T15:02:36.685Z,13.50
2023-02-06T15:05:04.958Z,15.43
2023-02-06T15:07:37.332Z,13.57
2023-02-06T15:10:15.198Z,12.10
2023-02-06T15:12:42.333Z,12.77
2023-02-06T15:15:25.102Z,12.33
2023-02-06T15:18:04.590Z,11.40
2023-02-06T15:20:43.163Z,11.87
2023-02-06T15:23:38.227Z,11.67
2023-02-06T15:26:38.675Z,11.23
2023-02-06T15:29:12.187Z,10.23
2023-02-06T15:31:39.141Z,10.57
2023-02-06T15:34:05.888Z,12.40
2023-02-06T15:36:38.176Z,13.80
2023-02-06T15:39:07.654Z,12.00
2023-02-06T15:41:40.209Z,12.87
2023-02-06T15:44:12.236Z,13.00
2023-02-06T15:46:39.776Z,12.47
2023-02-06T15:49:11.034Z,24.07
2023-02-06T15:51:52.047Z,17.57
2023-02-06T15:54:22.389Z,18.93
2023-02-06T15:56:56.074Z,16.33
2023-02-06T15:59:25.364Z,14.83
2023-02-06T16:01:55.302Z,19.30
2023-02-06T16:04:28.005Z,15.73
2023-02-06T16:07:16.167Z,15.43
2023-02-06T16:09:51.217Z,16.27
2023-02-06T16:12:18.404Z,14.23
2023-02-06T16:15:26.341Z,13.70
2023-02-06T16:17:53.023Z,13.87
2023-02-06T16:20:37.246Z,15.00
2023-02-06T16:23:46.707Z,13.37
2023-02-06T16:26:13.318Z,15.20
2023-02-06T16:28:49.454Z,16.37
2023-02-06T16:31:16.306Z,16.53
2023-02-06T16:33:47.426Z,16.83
2023-02-06T16:36:16.152Z,15.43
2023-02-06T16:38:48.356Z,16.73
2023-02-06T16:41:23.788Z,16.73
2023-02-06T16:43:51.349Z,18.93
2023-02-06T16:46:18.274Z,17.90
2023-02-06T16:48:44.933Z,15.87
2023-02-06T16:51:17.003Z,17.47
2023-02-06T16:53:44.390Z,15.17
2023-02-06T16:56:12.959Z,19.47
2023-02-06T16:58:39.631Z,17.07
2023-02-06T17:01:11.857Z,18.67
2023-02-06T17:03:39.098Z,17.70
2023-02-06T17:06:06.579Z,18.47
2023-02-06T17:08:39.474Z,14.47
2023-02-06T17:11:06.173Z,13.90
2023-02-06T17:13:32.842Z,12.97
2023-02-06T17:15:59.909Z,13.50
2023-02-06T17:18:26.667Z,16.43
2023-02-06T17:20:54.005Z,15.13
2023-02-06T17:23:20.794Z,13.57
2023-02-06T17:25:47.576Z,17.60
2023-02-06T17:28:17.441Z,15.10
2023-02-06T17:30:44.958Z,14.83
2023-02-06T17:33:11.716Z,17.30
2023-02-06T17:35:38.845Z,14.57
2023-02-06T17:38:07.780Z,13.07
2023-02-06T17:40:35.730Z,12.63
2023-02-06T17:43:04.725Z,13.67
2023-02-06T17:45:31.841Z,15.43
2023-02-06T17:47:58.618Z,13.23
2023-02-06T17:50:27.023Z,14.20
2023-02-06T17:52:55.719Z,13.40
2023-02-06T17:55:23.994Z,13.57
2023-02-06T17:57:50.770Z,12.63
2023-02-06T18:00:20.306Z,14.87
2023-02-06T18:02:47.014Z,14.57
2023-02-06T18:05:13.776Z,15.87
2023-02-06T18:07:40.975Z,16.30
2023-02-06T18:10:09.560Z,13.27
2023-02-06T18:12:36.331Z,14.53
2023-02-06T18:15:04.606Z,15.93
2023-02-06T18:17:31.424Z,14.80
2023-02-06T18:19:58.194Z,14.90
2023-02-06T18:22:24.868Z,17.40
2023-02-06T18:24:51.533Z,22.20
2023-02-06T18:27:20.426Z,23.13
2023-02-06T18:29:50.321Z,13.23
2023-02-06T18:32:18.846Z,14.80
2023-02-06T18:34:46.153Z,14.73
2023-02-06T18:37:12.970Z,12.67
2023-02-06T18:39:39.673Z,13.43
2023-02-06T18:42:24.818Z,14.00
2023-02-06T18:44:51.553Z,11.97
2023-02-06T18:47:19.772Z,14.00
2023-02-06T18:49:47.097Z,13.53
2023-02-06T18:52:14.317Z,11.83
2023-02-06T18:54:41.221Z,13.90
2023-02-06T18:57:08.285Z,12.87
2023-02-06T18:59:35.579Z,15.63
2023-02-06T19:02:02.673Z,14.33
2023-02-06T19:04:29.772Z,13.80
2023-02-06T19:06:56.695Z,13.23
2023-02-06T19:09:23.489Z,16.70
2023-02-06T19:11:50.268Z,16.37
2023-02-06T19:14:22.530Z,15.33
2023-02-06T19:16:51.149Z,13.87
2023-02-06T19:19:18.599Z,13.30
2023-02-06T19:21:45.527Z,13.90
2023-02-06T19:24:14.302Z,13.60
2023-02-06T19:26:41.946Z,11.03
2023-02-06T19:29:09.068Z,12.00
2023-02-06T19:31:39.088Z,12.03
2023-02-06T19:34:06.703Z,13.33
2023-02-06T19:36:33.547Z,13.00
2023-02-06T19:39:03.523Z,14.60
2023-02-06T19:41:32.795Z,15.03
2023-02-06T19:44:04.016Z,12.93
2023-02-06T19:46:31.372Z,14.13
2023-02-06T19:48:58.052Z,14.63
2023-02-06T19:51:31.439Z,14.90
2023-02-06T19:53:59.241Z,14.10
2023-02-06T19:56:34.586Z,14.20
2023-02-06T19:59:03.871Z,13.53
2023-02-06T20:01:31.294Z,14.97
2023-02-06T20:04:00.031Z,14.33
2023-02-06T20:06:28.243Z,14.30
2023-02-06T20:08:57.072Z,15.77
2023-02-06T20:11:24.059Z,15.33
2023-02-06T20:13:55.611Z,14.73
2023-02-06T20:16:26.177Z,17.60
2023-02-06T20:18:54.534Z,16.10
2023-02-06T20:21:28.072Z,15.37
2023-02-06T20:23:56.466Z,15.47
2023-02-06T20:26:25.658Z,16.40
2023-02-06T20:28:52.813Z,16.53
2023-02-06T20:31:20.413Z,15.67
2023-02-06T20:33:47.884Z,15.50
2023-02-06T20:36:20.671Z,16.57
2023-02-06T20:38:49.601Z,17.07
2023-02-06T20:41:17.239Z,15.50
2023-02-06T20:43:44.141Z,16.37
2023-02-06T20:46:16.963Z,15.43
2023-02-06T20:48:53.583Z,14.90
2023-02-06T20:51:20.448Z,15.83
2023-02-06T20:53:47.143Z,17.07
2023-02-06T20:56:17.067Z,15.23
2023-02-06T20:58:44.462Z,14.93
2023-02-06T21:01:27.324Z,16.20
2023-02-06T21:03:59.685Z,13.90
2023-02-06T21:06:26.876Z,15.50
2023-02-06T21:08:57.419Z,14.53
2023-02-06T21:11:24.256Z,18.33
2023-02-06T21:13:50.944Z,17.77
2023-02-06T21:16:17.609Z,17.23
2023-02-06T21:18:44.291Z,18.40
2023-02-06T21:21:14.300Z,17.17
2023-02-06T21:23:42.515Z,18.23
2023-02-06T21:26:11.890Z,17.67
2023-02-06T21:28:39.421Z,17.30
2023-02-06T21:31:18.465Z,18.37
2023-02-06T21:33:47.533Z,16.33
2023-02-06T21:36:14.330Z,14.87
2023-02-06T21:38:42.035Z,14.53
2023-02-06T21:41:15.777Z,14.93
2023-02-06T21:43:42.790Z,13.20
2023-02-06T21:46:10.785Z,13.97
2023-02-06T21:48:38.423Z,13.60
2023-02-06T21:51:10.880Z,13.30
2023-02-06T21:53:38.512Z,13.13
2023-02-06T21:56:16.840Z,13.77
2023-02-06T21:58:44.483Z,12.53
2023-02-06T22:01:20.663Z,12.87
2023-02-06T22:03:47.828Z,12.70
2023-02-06T22:06:15.054Z,12.80
2023-02-06T22:08:48.007Z,11.87
2023-02-06T22:11:26.352Z,12.77
2023-02-06T22:13:56.744Z,11.90
2023-02-06T22:16:24.162Z,12.17
2023-02-06T22:18:51.294Z,11.93
2023-02-06T22:21:20.809Z,12.30
2023-02-06T22:23:50.892Z,11.87
2023-02-06T22:26:19.761Z,11.50
2023-02-06T22:28:46.764Z,11.93
2023-02-06T22:31:15.109Z,11.57
2023-02-06T22:33:42.741Z,11.60
2023-02-06T22:36:12.975Z,11.63
2023-02-06T22:38:40.672Z,12.70
2023-02-06T22:41:10.680Z,11.67
2023-02-06T22:43:38.968Z,11.53
2023-02-06T22:46:06.632Z,10.63
2023-02-06T22:48:33.737Z,11.10
2023-02-06T22:51:10.272Z,11.30
2023-02-06T22:53:38.205Z,11.27
2023-02-06T22:56:26.684Z,12.83
2023-02-06T22:58:55.547Z,11.10
2023-02-06T23:01:24.621Z,12.60
2023-02-06T23:03:53.046Z,11.97
2023-02-06T23:06:20.214Z,11.40
2023-02-06T23:08:47.455Z,11.93
2023-02-06T23:11:14.167Z,11.87
2023-02-06T23:13:41.857Z,11.93
2023-02-06T23:16:09.689Z,11.80
2023-02-06T23:18:36.994Z,11.93
2023-02-06T23:21:10.819Z,11.10
2023-02-06T23:23:39.174Z,11.53
2023-02-06T23:26:12.486Z,11.50
2023-02-06T23:28:39.926Z,11.67
2023-02-06T23:31:07.784Z,12.33
2023-02-06T23:33:34.776Z,11.67
2023-02-06T23:36:05.403Z,11.80
2023-02-06T23:38:32.404Z,12.70
2023-02-06T23:41:14.055Z,12.47
2023-02-06T23:43:41.117Z,12.17
2023-02-06T23:46:12.141Z,12.37
2023-02-06T23:48:39.803Z,12.53
2023-02-06T23:51:26.209Z,12.30
2023-02-06T23:53:53.393Z,13.27
2023-02-06T23:56:26.042Z,12.13
2023-02-06T23:58:54.365Z,11.33
